KBCK

Black River Falls Area Airport

Black River Falls, Wisconsin, USA
METAR KBCK 151655Z AUTO 00000KT 10SM CLR 00/M05 A3021 RMK AO2 T10051054
Observed Flight Rules
Dec-15 @ 16:55 UTC (14 minutes ago) Visual Flight Rules
Visibility Clouds
10 miles
  • Clear skies
Temperatures Readings
Current -1°C / 30°F
Dewpoint -5°C / 23°F
Humidity 75%
Altimeter 30.21" Hg
Pressure 1023 hPa
Elevation 255
METAR KBCK 151655Z AUTO 00000KT 10SM CLR 00/M05 A3021 RMK AO2 T10051054
Observed Flight Rules
Dec-15 @ 16:55 UTC
(14 minutes ago)
VFR
Clouds
  • Clear skies
Temperature Dewpoint
-1°C / 30°F -5°C / 23°F
Humidity Altimeter Pressure
75% 30.21" Hg 1023 hPa